createdAt,value
2023-01-28T00:00:45.954Z,3.29
2023-01-28T00:04:49.757Z,3.25
2023-01-28T00:08:53.732Z,3.29
2023-01-28T00:12:57.911Z,3.27
2023-01-28T00:17:03.413Z,3.21
2023-01-28T00:21:10.187Z,3.22
2023-01-28T00:25:14.450Z,3.22
2023-01-28T00:29:18.757Z,3.15
2023-01-28T00:33:24.316Z,3.16
2023-01-28T00:37:28.289Z,3.18
2023-01-28T00:41:32.450Z,3.13
2023-01-28T00:45:36.446Z,3.11
2023-01-28T00:49:41.873Z,3.08
2023-01-28T00:53:46.339Z,3.15
2023-01-28T00:57:50.605Z,3.06
2023-01-28T01:01:54.566Z,3.09
2023-01-28T01:06:00.891Z,3.10
2023-01-28T01:10:04.444Z,3.05
2023-01-28T01:14:08.365Z,3.01
2023-01-28T01:18:12.514Z,3.01
2023-01-28T01:22:17.159Z,3.02
2023-01-28T01:26:21.068Z,2.99
2023-01-28T01:30:25.150Z,3.10
2023-01-28T01:34:29.249Z,3.00
2023-01-28T01:38:35.874Z,2.96
2023-01-28T01:42:39.846Z,2.94
2023-01-28T01:46:50.122Z,2.93
2023-01-28T01:50:59.106Z,2.97
2023-01-28T01:55:08.824Z,2.93
2023-01-28T01:59:16.598Z,2.94
2023-01-28T02:03:27.844Z,2.96
2023-01-28T02:07:31.926Z,2.93
2023-01-28T02:11:36.780Z,2.94
2023-01-28T02:15:40.948Z,2.84
2023-01-28T02:19:50.682Z,2.77
2023-01-28T02:24:11.602Z,2.74
2023-01-28T02:28:26.845Z,2.68
2023-01-28T02:32:39.270Z,2.70
2023-01-28T02:36:50.373Z,2.66
2023-01-28T02:41:06.740Z,2.61
2023-01-28T02:45:21.963Z,2.58
2023-01-28T02:49:30.743Z,2.61
2023-01-28T02:53:44.061Z,2.48
2023-01-28T02:57:59.994Z,2.57
2023-01-28T03:02:14.119Z,2.48
2023-01-28T03:06:21.895Z,2.42
2023-01-28T03:10:28.297Z,2.36
2023-01-28T03:14:51.617Z,2.36
2023-01-28T03:19:14.010Z,2.29
2023-01-28T03:23:41.384Z,2.33
2023-01-28T03:28:10.277Z,2.35
2023-01-28T03:32:32.375Z,2.19
2023-01-28T03:36:51.366Z,2.20
2023-01-28T03:41:13.904Z,2.20
2023-01-28T03:45:18.474Z,2.17
2023-01-28T03:49:24.696Z,2.07
2023-01-28T03:53:30.158Z,2.03
2023-01-28T03:57:35.133Z,2.04
2023-01-28T04:01:39.503Z,2.05
2023-01-28T04:05:44.634Z,2.04
2023-01-28T04:09:50.728Z,1.95
2023-01-28T04:14:04.035Z,1.92
2023-01-28T04:18:27.573Z,1.94
2023-01-28T04:22:34.067Z,1.91
2023-01-28T04:26:39.762Z,1.92
2023-01-28T04:30:43.951Z,1.90
2023-01-28T04:35:02.627Z,1.83
2023-01-28T04:39:44.966Z,1.85
2023-01-28T04:43:59.844Z,1.87
2023-01-28T04:48:27.181Z,1.85
2023-01-28T04:52:57.159Z,1.81
2023-01-28T04:57:16.987Z,1.83
2023-01-28T05:01:22.077Z,1.83
2023-01-28T05:05:26.733Z,1.77
2023-01-28T05:09:34.854Z,1.75
2023-01-28T05:13:40.115Z,1.76
2023-01-28T05:17:47.176Z,1.75
2023-01-28T05:21:53.610Z,1.71
2023-01-28T05:26:09.088Z,1.67
2023-01-28T05:30:13.659Z,1.70
2023-01-28T05:34:19.281Z,1.67
2023-01-28T05:38:23.261Z,1.70
2023-01-28T05:42:27.792Z,1.70
2023-01-28T05:46:45.676Z,1.62
2023-01-28T05:51:22.654Z,1.66
2023-01-28T05:55:31.712Z,1.66
2023-01-28T05:59:35.877Z,1.65
2023-01-28T06:03:40.171Z,1.69
2023-01-28T06:07:49.919Z,1.61
2023-01-28T06:11:54.729Z,1.59
2023-01-28T06:16:00.339Z,1.57
2023-01-28T06:20:24.831Z,1.65
2023-01-28T06:24:30.307Z,1.63
2023-01-28T06:28:34.326Z,1.53
2023-01-28T06:32:38.452Z,1.54
2023-01-28T06:36:42.474Z,1.50
2023-01-28T06:40:53.281Z,1.46
2023-01-28T06:44:57.475Z,1.51
2023-01-28T06:49:00.802Z,1.45
2023-01-28T06:53:04.640Z,1.46
2023-01-28T06:57:10.222Z,1.47
2023-01-28T07:01:14.860Z,1.44
2023-01-28T07:05:18.716Z,1.40
2023-01-28T07:09:22.289Z,1.44
2023-01-28T07:13:27.033Z,1.42
2023-01-28T07:17:30.352Z,1.41
2023-01-28T07:21:34.596Z,1.39
2023-01-28T07:25:38.669Z,1.41
2023-01-28T07:29:44.285Z,1.39
2023-01-28T07:33:48.356Z,1.37
2023-01-28T07:37:56.173Z,1.41
2023-01-28T07:42:00.141Z,1.44
2023-01-28T07:46:15.641Z,1.42
2023-01-28T07:50:18.899Z,1.35
2023-01-28T07:54:23.040Z,1.37
2023-01-28T07:58:26.156Z,1.29
2023-01-28T08:02:30.545Z,1.29
2023-01-28T08:06:37.791Z,1.36
2023-01-28T08:10:41.512Z,1.43
2023-01-28T08:14:44.543Z,1.45
2023-01-28T08:18:48.936Z,1.55
2023-01-28T08:22:51.971Z,1.45
2023-01-28T08:26:54.993Z,1.70
2023-01-28T08:31:01.077Z,1.70
2023-01-28T08:35:07.800Z,1.64
2023-01-28T08:39:10.819Z,1.57
2023-01-28T08:43:14.242Z,1.72
2023-01-28T08:47:17.259Z,1.76
2023-01-28T08:51:21.667Z,1.77
2023-01-28T08:55:25.103Z,1.75
2023-01-28T08:59:28.199Z,1.82
2023-01-28T09:03:31.258Z,1.76
2023-01-28T09:07:37.189Z,1.79
2023-01-28T09:11:40.195Z,1.58
2023-01-28T09:15:44.035Z,1.55
2023-01-28T09:19:47.130Z,1.58
2023-01-28T09:23:51.899Z,1.58
2023-01-28T09:27:55.274Z,1.82
2023-01-28T09:31:58.458Z,1.74
2023-01-28T09:36:01.959Z,1.73
2023-01-28T09:40:08.982Z,1.78
2023-01-28T09:44:28.916Z,1.95
2023-01-28T09:48:38.285Z,2.00
2023-01-28T09:52:42.540Z,1.82
2023-01-28T09:56:50.710Z,1.95
2023-01-28T10:01:00.686Z,2.00
2023-01-28T10:05:18.027Z,2.07
2023-01-28T10:09:30.739Z,2.04
2023-01-28T10:13:46.662Z,2.01
2023-01-28T10:17:53.603Z,1.95
2023-01-28T10:22:04.681Z,1.95
2023-01-28T10:26:18.186Z,2.15
2023-01-28T10:30:25.601Z,2.13
2023-01-28T10:34:28.796Z,2.02
2023-01-28T10:38:32.856Z,2.15
2023-01-28T10:42:37.875Z,2.53
2023-01-28T10:46:46.414Z,2.54
2023-01-28T10:50:54.936Z,2.64
2023-01-28T10:55:02.254Z,2.23
2023-01-28T10:59:07.788Z,2.28
2023-01-28T11:03:19.450Z,2.09
2023-01-28T11:07:23.024Z,2.34
2023-01-28T11:11:27.675Z,2.16
2023-01-28T11:15:30.798Z,2.20
2023-01-28T11:19:37.798Z,2.07
2023-01-28T11:23:55.963Z,1.77
2023-01-28T11:28:03.843Z,1.57
2023-01-28T11:32:17.695Z,1.77
2023-01-28T11:36:25.320Z,1.77
2023-01-28T11:40:29.003Z,1.90
2023-01-28T11:44:32.716Z,1.89
2023-01-28T11:48:47.066Z,1.97
2023-01-28T11:53:07.430Z,1.74
2023-01-28T11:57:23.663Z,1.91
2023-01-28T12:01:34.974Z,1.70
2023-01-28T12:05:49.903Z,1.62
2023-01-28T12:10:01.996Z,1.55
2023-01-28T12:14:15.663Z,1.70
2023-01-28T12:18:32.474Z,1.73
2023-01-28T12:23:00.923Z,1.58
2023-01-28T12:27:17.910Z,1.65
2023-01-28T12:31:38.632Z,1.87
2023-01-28T12:35:53.589Z,1.94
2023-01-28T12:40:09.909Z,2.05
2023-01-28T12:44:21.794Z,2.07
2023-01-28T12:48:31.753Z,1.94
2023-01-28T12:52:40.979Z,1.94
2023-01-28T12:56:48.950Z,1.75
2023-01-28T13:01:01.108Z,2.13
2023-01-28T13:05:12.139Z,2.52
2023-01-28T13:09:18.881Z,2.87
2023-01-28T13:13:28.941Z,3.65
2023-01-28T13:17:33.915Z,3.15
2023-01-28T13:21:48.697Z,2.66
2023-01-28T13:25:54.308Z,2.26
2023-01-28T13:30:06.838Z,2.72
2023-01-28T13:34:29.722Z,3.98
2023-01-28T13:38:34.196Z,4.28
2023-01-28T13:42:37.317Z,3.07
2023-01-28T13:46:40.414Z,2.25
2023-01-28T13:50:45.617Z,2.30
2023-01-28T13:54:54.344Z,2.36
2023-01-28T13:59:21.769Z,2.54
2023-01-28T14:03:51.150Z,2.00
2023-01-28T14:08:33.850Z,2.44
2023-01-28T14:12:54.775Z,1.83
2023-01-28T14:17:01.546Z,2.07
2023-01-28T14:21:12.496Z,2.12
2023-01-28T14:25:24.827Z,1.83
2023-01-28T14:29:51.336Z,1.99
2023-01-28T14:33:54.912Z,2.63
2023-01-28T14:38:00.438Z,2.99
2023-01-28T14:42:05.644Z,2.65
2023-01-28T14:46:23.976Z,2.81
2023-01-28T14:51:00.973Z,2.70
2023-01-28T14:55:19.699Z,3.07
2023-01-28T14:59:27.774Z,2.84
2023-01-28T15:03:31.929Z,3.92
2023-01-28T15:07:35.109Z,3.91
2023-01-28T15:11:43.492Z,4.59
2023-01-28T15:15:50.859Z,4.67
2023-01-28T15:19:57.006Z,3.99
2023-01-28T15:24:03.282Z,3.79
2023-01-28T15:28:06.909Z,4.09
2023-01-28T15:32:26.436Z,3.97
2023-01-28T15:36:30.468Z,3.25
2023-01-28T15:40:43.031Z,3.24
2023-01-28T15:44:48.101Z,2.70
2023-01-28T15:49:00.336Z,2.63
2023-01-28T15:53:03.402Z,2.08
2023-01-28T15:57:11.788Z,1.50
2023-01-28T16:01:20.656Z,1.12
2023-01-28T16:05:29.422Z,0.79
2023-01-28T16:09:35.161Z,0.51
2023-01-28T16:13:44.445Z,0.29
2023-01-28T16:17:51.207Z,0.08
2023-01-28T16:21:55.628Z,-0.18
2023-01-28T16:26:02.842Z,-0.35
2023-01-28T16:30:07.100Z,-0.50
2023-01-28T16:34:11.735Z,-0.57
2023-01-28T16:38:17.839Z,-0.62
2023-01-28T16:42:21.278Z,-0.66
2023-01-28T16:46:27.940Z,-0.56
2023-01-28T16:50:32.414Z,-0.67
2023-01-28T16:54:37.168Z,-0.73
2023-01-28T16:58:40.218Z,-0.93
2023-01-28T17:02:43.235Z,-0.88
2023-01-28T17:06:46.533Z,-0.96
2023-01-28T17:10:55.261Z,-0.79
2023-01-28T17:14:58.298Z,-1.00
2023-01-28T17:19:01.347Z,-1.36
2023-01-28T17:23:07.392Z,-1.39
2023-01-28T17:27:11.865Z,-1.64
2023-01-28T17:31:15.736Z,-1.45
2023-01-28T17:35:19.138Z,-1.27
2023-01-28T17:39:22.542Z,-1.13
2023-01-28T17:43:27.036Z,-1.25
2023-01-28T17:47:31.053Z,-1.54
2023-01-28T17:51:34.262Z,-1.71
2023-01-28T17:55:37.974Z,-1.95
2023-01-28T17:59:42.471Z,-1.90
2023-01-28T18:03:45.835Z,-1.95
2023-01-28T18:07:50.344Z,-2.06
2023-01-28T18:11:53.445Z,-2.09
2023-01-28T18:15:57.842Z,-2.10
2023-01-28T18:20:00.969Z,-2.17
2023-01-28T18:24:05.335Z,-2.21
2023-01-28T18:28:08.471Z,-2.38
2023-01-28T18:32:12.785Z,-2.38
2023-01-28T18:36:16.723Z,-2.35
2023-01-28T18:40:19.936Z,-2.33
2023-01-28T18:44:24.551Z,-2.38
2023-01-28T18:48:30.615Z,-2.45
2023-01-28T18:52:33.685Z,-2.47
2023-01-28T18:56:36.701Z,-2.45
2023-01-28T19:00:40.311Z,-2.51
2023-01-28T19:04:44.673Z,-2.57
2023-01-28T19:08:52.920Z,-2.62
2023-01-28T19:12:56.304Z,-2.54
2023-01-28T19:16:59.369Z,-2.62
2023-01-28T19:21:05.969Z,-2.80
2023-01-28T19:25:10.257Z,-2.79
2023-01-28T19:29:15.971Z,-2.60
2023-01-28T19:33:19.228Z,-2.58
2023-01-28T19:37:23.875Z,-2.24
2023-01-28T19:41:27.082Z,-2.36
2023-01-28T19:45:30.102Z,-2.58
2023-01-28T19:49:33.227Z,-2.59
2023-01-28T19:53:38.604Z,-2.78
2023-01-28T19:57:42.803Z,-2.86
2023-01-28T20:01:45.837Z,-2.78
2023-01-28T20:05:48.919Z,-2.82
2023-01-28T20:09:53.289Z,-2.94
2023-01-28T20:13:56.974Z,-2.92
2023-01-28T20:17:59.997Z,-2.90
2023-01-28T20:22:03.113Z,-2.93
2023-01-28T20:26:07.528Z,-2.99
2023-01-28T20:30:12.010Z,-3.03
2023-01-28T20:34:18.390Z,-3.06
2023-01-28T20:38:22.016Z,-3.18
2023-01-28T20:42:26.469Z,-3.05
2023-01-28T20:46:31.967Z,-2.97
2023-01-28T20:50:35.878Z,-3.08
2023-01-28T20:54:38.954Z,-3.07
2023-01-28T20:58:43.750Z,-3.03
2023-01-28T21:02:46.941Z,-3.17
2023-01-28T21:06:50.006Z,-2.86
2023-01-28T21:10:53.052Z,-2.91
2023-01-28T21:14:57.582Z,-3.01
2023-01-28T21:19:00.712Z,-3.10
2023-01-28T21:23:03.794Z,-3.32
2023-01-28T21:27:06.843Z,-3.38
2023-01-28T21:31:12.936Z,-3.19
2023-01-28T21:35:16.222Z,-3.19
2023-01-28T21:39:19.370Z,-3.35
2023-01-28T21:43:22.422Z,-3.51
2023-01-28T21:47:26.844Z,-3.30
2023-01-28T21:51:38.115Z,-3.34
2023-01-28T21:55:41.500Z,-3.34
2023-01-28T21:59:44.539Z,-3.34
2023-01-28T22:03:48.998Z,-3.53
2023-01-28T22:07:52.043Z,-3.52
2023-01-28T22:11:56.902Z,-3.56
2023-01-28T22:16:00.088Z,-3.52
2023-01-28T22:20:04.911Z,-3.63
2023-01-28T22:24:10.161Z,-3.76
2023-01-28T22:28:13.185Z,-3.72
2023-01-28T22:32:16.221Z,-3.75
2023-01-28T22:36:20.698Z,-3.80
2023-01-28T22:40:24.078Z,-3.84
2023-01-28T22:44:27.384Z,-3.75
2023-01-28T22:48:30.995Z,-3.74
2023-01-28T22:52:35.355Z,-3.71
2023-01-28T22:56:38.457Z,-3.91
2023-01-28T23:00:41.508Z,-3.96
2023-01-28T23:04:45.790Z,-3.73
2023-01-28T23:08:51.820Z,-3.79
2023-01-28T23:12:54.835Z,-3.84
2023-01-28T23:17:15.357Z,-3.75
2023-01-28T23:21:38.271Z,-3.61
2023-01-28T23:25:42.658Z,-3.20
2023-01-28T23:29:46.555Z,-3.38
2023-01-28T23:33:49.842Z,-3.50
2023-01-28T23:37:53.878Z,-3.38
2023-01-28T23:41:59.225Z,-3.38
2023-01-28T23:46:03.118Z,-3.73
2023-01-28T23:50:07.547Z,-3.93
2023-01-28T23:54:10.817Z,-3.88
2023-01-28T23:58:15.163Z,-3.80
